Time;durP1;ratioP1;P1;durP2;ratioP2;P2;SDS_P1;SDS_P2;PMS_P1;PMS_P2;Temp;Humidity;BMP_temperature;BMP_pressure;BME280_temperature;BME280_humidity;BME280_pressure;Samples;Min_cycle;Max_cycle;Signal;HPM_P1;HPM_P2
2024/02/19 00:00:47;;;;;;;6.93;6.33;;;;;;;;;;5073485;28;20539;-65
2024/02/19 00:03:14;;;;;;;7.00;6.20;;;;;;;;;;5073331;28;21157;-65
2024/02/19 00:05:42;;;;;;;7.90;7.10;;;;;;;;;;5073327;28;20452;-65
2024/02/19 00:08:08;;;;;;;7.43;6.73;;;;;;;;;;5073382;28;20443;-65
2024/02/19 00:10:35;;;;;;;7.37;6.60;;;;;;;;;;5073176;28;20466;-65
2024/02/19 00:13:02;;;;;;;6.00;5.50;;;;;;;;;;5073368;28;20544;-65
2024/02/19 00:15:31;;;;;;;6.60;6.00;;;;;;;;;;5073357;28;20875;-65
2024/02/19 00:17:57;;;;;;;6.80;6.20;;;;;;;;;;5073289;28;20958;-65
2024/02/19 00:20:24;;;;;;;8.97;6.67;;;;;;;;;;5072822;28;20449;-65
2024/02/19 00:22:51;;;;;;;7.30;6.60;;;;;;;;;;5073131;28;20534;-65
2024/02/19 00:25:19;;;;;;;7.03;6.37;;;;;;;;;;5073268;28;20791;-65
2024/02/19 00:27:46;;;;;;;8.57;7.47;;;;;;;;;;5073111;28;20914;-65
2024/02/19 00:30:13;;;;;;;8.50;5.90;;;;;;;;;;5073062;28;20520;-65
2024/02/19 00:32:41;;;;;;;6.87;6.20;;;;;;;;;;5073325;28;20543;-65
2024/02/19 00:35:08;;;;;;;7.20;6.50;;;;;;;;;;5072919;28;20507;-65
2024/02/19 00:37:35;;;;;;;6.97;6.37;;;;;;;;;;5072838;28;20554;-65
2024/02/19 00:40:04;;;;;;;6.90;6.20;;;;;;;;;;5072968;28;20824;-65
2024/02/19 00:42:31;;;;;;;7.20;6.50;;;;;;;;;;5073011;28;20444;-65
2024/02/19 00:44:58;;;;;;;5.73;5.23;;;;;;;;;;5072820;28;20534;-65
2024/02/19 00:47:25;;;;;;;6.47;5.83;;;;;;;;;;5072746;28;20573;-65
2024/02/19 00:49:53;;;;;;;5.10;4.70;;;;;;;;;;5073307;28;20927;-65
2024/02/19 00:52:20;;;;;;;5.77;5.27;;;;;;;;;;5072737;28;20625;-65
2024/02/19 00:54:47;;;;;;;6.80;5.73;;;;;;;;;;5072923;28;20439;-65
2024/02/19 00:57:14;;;;;;;5.90;5.50;;;;;;;;;;5072846;28;20535;-65
2024/02/19 00:59:41;;;;;;;5.10;4.70;;;;;;;;;;5072873;28;20530;-65
2024/02/19 01:02:08;;;;;;;5.33;4.70;;;;;;;;;;5072740;28;20439;-65
2024/02/19 01:04:35;;;;;;;5.30;4.80;;;;;;;;;;5072618;28;20445;-66
2024/02/19 01:07:03;;;;;;;5.33;4.80;;;;;;;;;;5072822;28;20486;-65
2024/02/19 01:09:30;;;;;;;5.30;4.37;;;;;;;;;;5072718;28;20476;-65
2024/02/19 01:11:57;;;;;;;4.70;4.40;;;;;;;;;;5072720;28;20486;-65
2024/02/19 01:14:24;;;;;;;4.43;4.03;;;;;;;;;;5072714;28;20855;-65
2024/02/19 01:16:51;;;;;;;6.27;5.00;;;;;;;;;;5072545;28;20546;-65
2024/02/19 01:19:18;;;;;;;5.73;5.23;;;;;;;;;;5072484;28;20505;-65
2024/02/19 01:21:47;;;;;;;4.57;4.17;;;;;;;;;;5072654;28;20447;-65
2024/02/19 01:24:15;;;;;;;4.80;4.30;;;;;;;;;;5072571;28;20772;-65
2024/02/19 01:26:42;;;;;;;4.03;3.73;;;;;;;;;;5072500;28;20800;-65
2024/02/19 01:29:09;;;;;;;4.20;3.90;;;;;;;;;;5072515;28;20439;-65
2024/02/19 01:31:36;;;;;;;4.60;4.30;;;;;;;;;;5072343;28;20436;-65
2024/02/19 01:34:04;;;;;;;3.67;3.47;;;;;;;;;;5075139;28;20834;-65
2024/02/19 01:36:31;;;;;;;4.93;4.33;;;;;;;;;;5076290;28;20807;-66
2024/02/19 01:38:58;;;;;;;5.07;4.60;;;;;;;;;;5075970;28;20982;-65
2024/02/19 01:41:26;;;;;;;5.53;4.70;;;;;;;;;;5076072;28;20534;-65
2024/02/19 01:43:53;;;;;;;4.07;3.77;;;;;;;;;;5076020;28;20534;-65
2024/02/19 01:46:20;;;;;;;4.17;3.77;;;;;;;;;;5075809;28;20929;-65
2024/02/19 01:48:47;;;;;;;4.43;4.13;;;;;;;;;;5075897;28;20447;-65
2024/02/19 01:51:15;;;;;;;3.60;3.37;;;;;;;;;;5076041;28;20534;-65
2024/02/19 01:53:42;;;;;;;4.03;3.70;;;;;;;;;;5075912;28;20529;-65
2024/02/19 01:56:09;;;;;;;3.67;3.03;;;;;;;;;;5075805;28;20455;-65
2024/02/19 01:58:37;;;;;;;4.30;3.40;;;;;;;;;;5075823;28;20443;-65
2024/02/19 02:01:06;;;;;;;3.83;3.53;;;;;;;;;;5075629;28;20439;-65
2024/02/19 02:03:33;;;;;;;3.70;3.03;;;;;;;;;;5075995;28;20439;-65
2024/02/19 02:06:00;;;;;;;3.63;3.33;;;;;;;;;;5075739;28;20444;-65
2024/02/19 02:08:27;;;;;;;5.73;3.40;;;;;;;;;;5075491;28;20506;-65
2024/02/19 02:10:54;;;;;;;3.23;2.93;;;;;;;;;;5075495;28;20965;-65
2024/02/19 02:13:22;;;;;;;3.87;3.57;;;;;;;;;;5075385;28;20534;-65
2024/02/19 02:15:50;;;;;;;3.57;3.27;;;;;;;;;;5075642;28;20443;-65
2024/02/19 02:18:18;;;;;;;3.80;3.50;;;;;;;;;;5075527;28;20454;-65
2024/02/19 02:20:45;;;;;;;3.27;2.97;;;;;;;;;;5075376;28;20451;-65
2024/02/19 02:23:13;;;;;;;3.50;3.10;;;;;;;;;;5075401;28;20449;-65
2024/02/19 02:25:40;;;;;;;3.00;2.80;;;;;;;;;;5075211;28;20531;-65
2024/02/19 02:28:08;;;;;;;4.70;3.20;;;;;;;;;;5075123;28;20481;-65
2024/02/19 02:30:35;;;;;;;3.60;3.40;;;;;;;;;;5075292;28;20534;-65
2024/02/19 02:33:02;;;;;;;3.27;2.80;;;;;;;;;;5075254;28;20454;-65
2024/02/19 02:35:29;;;;;;;3.10;2.80;;;;;;;;;;5075186;28;20443;-65
2024/02/19 02:37:56;;;;;;;2.83;2.63;;;;;;;;;;5074985;28;20440;-65
2024/02/19 02:40:24;;;;;;;2.60;2.40;;;;;;;;;;5075158;28;20534;-65
2024/02/19 02:42:51;;;;;;;2.80;2.60;;;;;;;;;;5075171;28;20439;-65
2024/02/19 02:45:19;;;;;;;2.50;2.40;;;;;;;;;;5074790;28;20446;-65
2024/02/19 02:47:46;;;;;;;3.10;2.90;;;;;;;;;;5075154;28;20483;-65
2024/02/19 02:50:13;;;;;;;3.30;3.03;;;;;;;;;;5074842;28;20633;-65
2024/02/19 02:52:40;;;;;;;2.20;1.90;;;;;;;;;;5074708;28;20526;-65
2024/02/19 02:55:07;;;;;;;2.43;2.23;;;;;;;;;;5074584;28;20542;-65
2024/02/19 02:57:34;;;;;;;2.20;2.10;;;;;;;;;;5074894;28;20444;-65
2024/02/19 03:00:01;;;;;;;2.33;2.13;;;;;;;;;;5074795;28;20885;-65
2024/02/19 03:02:29;;;;;;;2.13;2.03;;;;;;;;;;5074631;28;20482;-65
2024/02/19 03:04:56;;;;;;;2.40;2.30;;;;;;;;;;5074644;28;20462;-65
2024/02/19 03:07:23;;;;;;;2.60;2.50;;;;;;;;;;5074346;28;20471;-65
2024/02/19 03:09:50;;;;;;;2.93;2.17;;;;;;;;;;5074629;28;20530;-65
2024/02/19 03:12:17;;;;;;;2.67;2.47;;;;;;;;;;5074518;28;20534;-65
2024/02/19 03:14:44;;;;;;;2.50;2.40;;;;;;;;;;5074835;28;20530;-65
2024/02/19 03:17:11;;;;;;;2.57;2.37;;;;;;;;;;5074432;28;20535;-65
2024/02/19 03:19:41;;;;;;;2.53;2.33;;;;;;;;;;5074247;28;20535;-65
2024/02/19 03:22:08;;;;;;;2.50;2.27;;;;;;;;;;5074447;28;20470;-65
2024/02/19 03:24:35;;;;;;;2.43;2.30;;;;;;;;;;5074307;28;20530;-65
2024/02/19 03:27:04;;;;;;;2.50;2.30;;;;;;;;;;5074133;28;20537;-65
2024/02/19 03:29:31;;;;;;;2.17;2.07;;;;;;;;;;5074082;28;20452;-65
2024/02/19 03:31:58;;;;;;;1.83;1.73;;;;;;;;;;5073977;28;20931;-65
2024/02/19 03:34:25;;;;;;;2.17;2.07;;;;;;;;;;5073879;28;20530;-65
2024/02/19 03:36:53;;;;;;;1.93;1.60;;;;;;;;;;5073756;28;20543;-65
2024/02/19 03:39:20;;;;;;;4.40;2.23;;;;;;;;;;5073627;28;20561;-65
2024/02/19 03:41:47;;;;;;;5.03;1.87;;;;;;;;;;5073891;28;20444;-65
2024/02/19 03:44:15;;;;;;;2.07;1.97;;;;;;;;;;5073844;28;20490;-65
2024/02/19 03:46:42;;;;;;;2.83;2.63;;;;;;;;;;5073679;28;20562;-65
2024/02/19 03:49:09;;;;;;;2.03;1.93;;;;;;;;;;5073485;28;20546;-65
2024/02/19 03:51:36;;;;;;;1.90;1.80;;;;;;;;;;5073540;28;21092;-65
2024/02/19 03:54:04;;;;;;;2.00;1.90;;;;;;;;;;5073879;28;20444;-65
2024/02/19 03:56:31;;;;;;;2.03;1.93;;;;;;;;;;5072938;28;20860;-65
2024/02/19 03:58:58;;;;;;;9.03;2.07;;;;;;;;;;5073478;28;20534;-65
2024/02/19 04:01:25;;;;;;;2.80;2.37;;;;;;;;;;5073418;28;20538;-65
2024/02/19 04:03:52;;;;;;;2.20;2.00;;;;;;;;;;5073361;28;20523;-65
2024/02/19 04:06:19;;;;;;;1.70;1.60;;;;;;;;;;5073309;28;20527;-65
2024/02/19 04:08:46;;;;;;;2.90;1.90;;;;;;;;;;5073350;28;20566;-65
2024/02/19 04:11:16;;;;;;;1.63;1.53;;;;;;;;;;5073411;28;20538;-65
2024/02/19 04:13:43;;;;;;;2.10;1.87;;;;;;;;;;5073218;28;20451;-65
2024/02/19 04:16:10;;;;;;;2.03;1.83;;;;;;;;;;5073131;28;20538;-65
2024/02/19 04:18:37;;;;;;;2.30;2.10;;;;;;;;;;5073365;28;20531;-65
2024/02/19 04:21:04;;;;;;;1.90;1.80;;;;;;;;;;5073541;28;20534;-65
2024/02/19 04:23:31;;;;;;;1.80;1.70;;;;;;;;;;5073137;28;20531;-65
2024/02/19 04:25:58;;;;;;;1.70;1.60;;;;;;;;;;5073205;28;20870;-65
2024/02/19 04:28:26;;;;;;;1.67;1.57;;;;;;;;;;5073062;28;20476;-65
2024/02/19 04:30:53;;;;;;;1.90;1.80;;;;;;;;;;5072905;28;20449;-65
2024/02/19 04:33:20;;;;;;;1.57;1.47;;;;;;;;;;5073181;28;20539;-65
2024/02/19 04:35:47;;;;;;;1.50;1.40;;;;;;;;;;5073107;28;20894;-65
2024/02/19 04:38:14;;;;;;;1.77;1.67;;;;;;;;;;5072889;28;20558;-65
2024/02/19 04:40:41;;;;;;;1.30;1.20;;;;;;;;;;5073149;28;20496;-65
2024/02/19 04:43:08;;;;;;;1.80;1.70;;;;;;;;;;5073194;28;20448;-65
2024/02/19 04:45:36;;;;;;;1.13;1.03;;;;;;;;;;5072867;28;20680;-65
2024/02/19 04:48:03;;;;;;;1.60;1.50;;;;;;;;;;5072967;28;20826;-65
2024/02/19 04:50:30;;;;;;;1.60;1.50;;;;;;;;;;5073040;28;20530;-65
2024/02/19 04:52:57;;;;;;;1.30;1.20;;;;;;;;;;5072829;28;20454;-65
2024/02/19 04:55:24;;;;;;;1.60;1.50;;;;;;;;;;5072882;28;20443;-65
2024/02/19 04:57:51;;;;;;;1.27;1.10;;;;;;;;;;5072782;28;20451;-65
2024/02/19 05:00:18;;;;;;;1.20;1.10;;;;;;;;;;5073009;28;20507;-65
2024/02/19 05:02:46;;;;;;;1.43;1.33;;;;;;;;;;5072879;28;20447;-65
2024/02/19 05:05:13;;;;;;;1.60;1.50;;;;;;;;;;5072868;28;20449;-65
2024/02/19 05:07:40;;;;;;;1.73;1.63;;;;;;;;;;5074750;28;20587;-65
2024/02/19 05:10:08;;;;;;;1.60;1.37;;;;;;;;;;5076670;28;20535;-65
2024/02/19 05:12:34;;;;;;;1.70;1.60;;;;;;;;;;5076519;28;20443;-65
2024/02/19 05:15:02;;;;;;;1.60;1.50;;;;;;;;;;5076763;28;20498;-65
2024/02/19 05:17:29;;;;;;;1.50;1.20;;;;;;;;;;5076696;28;20846;-65
2024/02/19 05:19:57;;;;;;;1.43;1.33;;;;;;;;;;5076842;28;20439;-65
2024/02/19 05:22:24;;;;;;;2.60;2.20;;;;;;;;;;5076485;28;20443;-65
2024/02/19 05:24:51;;;;;;;1.50;1.40;;;;;;;;;;5076381;28;20451;-65
2024/02/19 05:27:19;;;;;;;1.30;1.20;;;;;;;;;;5076151;28;20447;-65
2024/02/19 05:29:46;;;;;;;1.27;1.17;;;;;;;;;;5076444;28;20803;-65
2024/02/19 05:32:13;;;;;;;1.10;1.00;;;;;;;;;;5076342;28;20538;-65
2024/02/19 05:34:40;;;;;;;1.30;1.20;;;;;;;;;;5076052;28;20449;-65
2024/02/19 05:37:08;;;;;;;1.50;1.40;;;;;;;;;;5076470;28;20717;-65
2024/02/19 05:39:35;;;;;;;1.50;1.40;;;;;;;;;;5075998;28;20475;-65
2024/02/19 05:42:02;;;;;;;2.20;1.57;;;;;;;;;;5076224;28;20529;-65
2024/02/19 05:44:29;;;;;;;1.57;1.43;;;;;;;;;;5076166;28;20752;-65
2024/02/19 05:46:56;;;;;;;1.50;1.33;;;;;;;;;;5075846;28;20554;-65
2024/02/19 05:49:23;;;;;;;1.70;1.60;;;;;;;;;;5075973;28;20812;-65
2024/02/19 05:51:50;;;;;;;1.77;1.67;;;;;;;;;;5075837;28;20538;-65
2024/02/19 05:54:21;;;;;;;2.90;1.60;;;;;;;;;;5075807;28;20876;-65
2024/02/19 05:56:48;;;;;;;1.50;1.40;;;;;;;;;;5075937;28;20458;-65
2024/02/19 05:59:15;;;;;;;1.57;1.47;;;;;;;;;;5075871;28;20530;-64
2024/02/19 06:01:42;;;;;;;1.60;1.50;;;;;;;;;;5075681;28;20998;-65
2024/02/19 06:04:09;;;;;;;1.43;1.33;;;;;;;;;;5075612;28;20535;-64
2024/02/19 06:06:36;;;;;;;1.70;1.60;;;;;;;;;;5075494;28;20443;-65
2024/02/19 06:09:04;;;;;;;2.10;2.00;;;;;;;;;;5075634;28;20918;-65
2024/02/19 06:11:32;;;;;;;1.70;1.60;;;;;;;;;;5075770;28;20447;-65
2024/02/19 06:14:00;;;;;;;1.77;1.67;;;;;;;;;;5075642;28;20541;-65
2024/02/19 06:16:27;;;;;;;1.60;1.50;;;;;;;;;;5075332;28;20955;-65
2024/02/19 06:18:54;;;;;;;1.50;1.40;;;;;;;;;;5074800;28;20534;-65
2024/02/19 06:21:20;;;;;;;3.33;1.60;;;;;;;;;;5075338;28;20513;-65
2024/02/19 06:23:47;;;;;;;1.80;1.70;;;;;;;;;;5075317;28;20538;-64
2024/02/19 06:26:14;;;;;;;1.60;1.50;;;;;;;;;;5075349;28;20447;-65
2024/02/19 06:28:43;;;;;;;1.80;1.70;;;;;;;;;;5075230;28;20490;-65
2024/02/19 06:31:10;;;;;;;1.40;1.30;;;;;;;;;;5075251;28;20450;-65
2024/02/19 06:33:37;;;;;;;1.37;1.27;;;;;;;;;;5074939;28;20534;-65
2024/02/19 06:36:04;;;;;;;1.20;1.10;;;;;;;;;;5075260;28;20440;-65
2024/02/19 06:38:31;;;;;;;1.07;0.97;;;;;;;;;;5074758;28;20471;-65
2024/02/19 06:40:58;;;;;;;1.10;0.90;;;;;;;;;;5074990;28;20538;-65
2024/02/19 06:43:25;;;;;;;0.90;0.70;;;;;;;;;;5074972;28;20497;-65
2024/02/19 06:45:53;;;;;;;0.80;0.80;;;;;;;;;;5074849;28;20443;-65
2024/02/19 06:48:20;;;;;;;0.60;0.50;;;;;;;;;;5074574;28;20471;-65
2024/02/19 06:50:47;;;;;;;0.70;0.70;;;;;;;;;;5074913;28;20878;-65
2024/02/19 06:53:14;;;;;;;0.80;0.60;;;;;;;;;;5074758;28;20530;-65
2024/02/19 06:55:41;;;;;;;1.00;0.70;;;;;;;;;;5074373;28;20994;-65
2024/02/19 06:58:08;;;;;;;0.70;0.67;;;;;;;;;;5074563;28;20531;-65
2024/02/19 07:00:35;;;;;;;1.73;0.87;;;;;;;;;;5074401;28;20526;-65
2024/02/19 07:03:03;;;;;;;1.10;0.67;;;;;;;;;;5074458;28;20878;-65
2024/02/19 07:05:30;;;;;;;0.70;0.67;;;;;;;;;;5074875;28;20535;-65
2024/02/19 07:07:57;;;;;;;0.80;0.73;;;;;;;;;;5074432;28;20531;-65
2024/02/19 07:10:24;;;;;;;0.90;0.80;;;;;;;;;;5074664;28;20450;-65
2024/02/19 07:12:51;;;;;;;0.90;0.73;;;;;;;;;;5074555;28;20444;-64
2024/02/19 07:15:18;;;;;;;1.87;1.10;;;;;;;;;;5074238;28;20581;-65
2024/02/19 07:17:45;;;;;;;0.90;0.80;;;;;;;;;;5074138;28;20523;-64
2024/02/19 07:20:14;;;;;;;4.40;1.53;;;;;;;;;;5074312;28;20474;-65
2024/02/19 07:22:40;;;;;;;2.30;2.10;;;;;;;;;;5074035;28;20454;-65
2024/02/19 07:25:08;;;;;;;4.40;1.37;;;;;;;;;;5074114;28;20443;-65
2024/02/19 07:27:35;;;;;;;2.10;1.90;;;;;;;;;;5074026;28;20796;-65
2024/02/19 07:30:02;;;;;;;1.93;1.70;;;;;;;;;;5073147;28;20483;-65
2024/02/19 07:32:29;;;;;;;1.50;1.40;;;;;;;;;;5073629;28;20443;-65
2024/02/19 07:34:55;;;;;;;1.70;1.60;;;;;;;;;;5074051;28;20902;-65
2024/02/19 07:37:24;;;;;;;1.27;1.17;;;;;;;;;;5074000;28;20535;-65
2024/02/19 07:39:51;;;;;;;2.17;1.30;;;;;;;;;;5073887;28;20881;-65
2024/02/19 07:42:17;;;;;;;2.90;2.57;;;;;;;;;;5073754;28;20534;-65
2024/02/19 07:44:44;;;;;;;1.40;1.30;;;;;;;;;;5073614;28;20811;-65
2024/02/19 07:47:11;;;;;;;1.20;0.90;;;;;;;;;;5073796;28;20482;-64
2024/02/19 07:49:38;;;;;;;0.90;0.90;;;;;;;;;;5073603;28;20871;-65
2024/02/19 07:52:06;;;;;;;1.37;0.80;;;;;;;;;;5074015;28;20447;-65
2024/02/19 07:54:34;;;;;;;1.03;0.93;;;;;;;;;;5073737;28;20454;-65
2024/02/19 07:57:01;;;;;;;1.10;0.80;;;;;;;;;;5073097;28;20580;-65
2024/02/19 07:59:28;;;;;;;0.90;0.90;;;;;;;;;;5073320;28;20278;-65
2024/02/19 08:01:55;;;;;;;1.17;1.00;;;;;;;;;;5072695;28;20485;-65
2024/02/19 08:04:26;;;;;;;1.50;1.17;;;;;;;;;;5073117;28;20277;-65
2024/02/19 08:06:53;;;;;;;1.27;1.13;;;;;;;;;;5073496;28;20444;-65
2024/02/19 08:09:20;;;;;;;1.10;1.00;;;;;;;;;;5073168;28;20526;-65
2024/02/19 08:11:50;;;;;;;1.13;1.03;;;;;;;;;;5073112;28;20447;-66
2024/02/19 08:14:16;;;;;;;1.77;1.10;;;;;;;;;;5073339;28;20448;-66
2024/02/19 08:16:43;;;;;;;5.73;0.90;;;;;;;;;;5073172;28;20888;-73
2024/02/19 08:19:10;;;;;;;1.20;1.10;;;;;;;;;;5073152;28;20451;-69
2024/02/19 08:21:37;;;;;;;1.10;1.00;;;;;;;;;;5073084;28;20530;-63
2024/02/19 08:24:04;;;;;;;1.60;0.90;;;;;;;;;;5073155;28;20490;-73
2024/02/19 08:26:32;;;;;;;0.80;0.80;;;;;;;;;;5073327;28;20542;-68
2024/02/19 08:29:00;;;;;;;1.93;1.27;;;;;;;;;;5072835;28;20755;-69
2024/02/19 08:31:28;;;;;;;1.40;1.30;;;;;;;;;;5072868;28;20456;-76
2024/02/19 08:33:55;;;;;;;1.30;1.20;;;;;;;;;;5073421;28;20454;-76
2024/02/19 08:36:21;;;;;;;1.13;1.03;;;;;;;;;;5073128;28;20538;-85
2024/02/19 08:38:49;;;;;;;1.10;0.90;;;;;;;;;;5072721;28;20558;-68
2024/02/19 08:41:16;;;;;;;1.13;1.03;;;;;;;;;;5072864;28;20550;-68
2024/02/19 08:43:43;;;;;;;0.80;0.80;;;;;;;;;;5072641;28;20446;-69
2024/02/19 08:46:11;;;;;;;0.80;0.80;;;;;;;;;;5072664;28;20622;-69
2024/02/19 08:48:38;;;;;;;1.00;1.00;;;;;;;;;;5072639;28;20481;-67
2024/02/19 08:51:05;;;;;;;1.20;1.10;;;;;;;;;;5072845;28;20913;-72
2024/02/19 08:53:33;;;;;;;1.00;0.90;;;;;;;;;;5072541;28;20448;-64
2024/02/19 08:56:00;;;;;;;3.57;1.20;;;;;;;;;;5072740;28;20443;-74
2024/02/19 08:58:25;;;;;;;0.80;0.80;;;;;;;;;;5072723;28;20473;-70
2024/02/19 09:00:52;;;;;;;1.57;1.00;;;;;;;;;;5072676;28;20546;-69
2024/02/19 09:03:21;;;;;;;1.10;0.97;;;;;;;;;;5072535;28;20534;-70
2024/02/19 09:05:47;;;;;;;1.67;0.90;;;;;;;;;;5072409;28;20538;-69
2024/02/19 09:08:14;;;;;;;0.70;0.70;;;;;;;;;;5072696;28;20445;-69
2024/02/19 09:10:41;;;;;;;0.80;0.80;;;;;;;;;;5072582;28;20489;-65
2024/02/19 09:13:08;;;;;;;0.90;0.90;;;;;;;;;;5072892;28;20573;-71
2024/02/19 09:15:35;;;;;;;0.80;0.80;;;;;;;;;;5072490;28;20447;-69
2024/02/19 09:18:02;;;;;;;0.90;0.80;;;;;;;;;;5072375;28;20530;-68
2024/02/19 09:20:30;;;;;;;0.90;0.80;;;;;;;;;;5072183;28;20534;-67
2024/02/19 09:22:57;;;;;;;1.67;0.97;;;;;;;;;;5072288;28;20946;-66
2024/02/19 09:25:25;;;;;;;0.80;0.77;;;;;;;;;;5072475;28;20528;-70
2024/02/19 09:27:52;;;;;;;0.93;0.60;;;;;;;;;;5072425;28;20466;-68
2024/02/19 09:30:19;;;;;;;0.90;0.80;;;;;;;;;;5072292;28;20483;-68
2024/02/19 09:32:46;;;;;;;1.60;1.00;;;;;;;;;;5072196;28;20447;-65
2024/02/19 09:35:13;;;;;;;1.07;0.70;;;;;;;;;;5072439;28;20444;-67
2024/02/19 09:37:41;;;;;;;0.70;0.70;;;;;;;;;;5072695;28;20439;-68
2024/02/19 09:40:09;;;;;;;1.50;0.90;;;;;;;;;;5072159;28;20810;-64
2024/02/19 09:42:36;;;;;;;0.80;0.80;;;;;;;;;;5072214;28;20483;-66
2024/02/19 09:45:03;;;;;;;0.90;0.90;;;;;;;;;;5072295;28;20444;-68
2024/02/19 09:47:32;;;;;;;1.27;1.17;;;;;;;;;;5072012;28;20947;-70
2024/02/19 09:49:59;;;;;;;0.90;0.90;;;;;;;;;;5072286;28;20479;-69
2024/02/19 09:52:26;;;;;;;2.20;0.90;;;;;;;;;;5072289;28;20539;-66
2024/02/19 09:54:54;;;;;;;1.53;0.80;;;;;;;;;;5074434;28;20454;-64
2024/02/19 09:57:22;;;;;;;0.80;0.80;;;;;;;;;;5075665;28;20928;-68
2024/02/19 09:59:49;;;;;;;1.00;0.80;;;;;;;;;;5075567;28;20458;-67
2024/02/19 10:02:18;;;;;;;0.93;0.90;;;;;;;;;;5075593;28;20912;-66
2024/02/19 10:04:46;;;;;;;0.80;0.80;;;;;;;;;;5075671;28;20497;-68
2024/02/19 10:07:16;;;;;;;0.90;0.80;;;;;;;;;;5075515;28;20996;-64
2024/02/19 10:09:43;;;;;;;1.10;1.00;;;;;;;;;;5075377;28;20839;-65
2024/02/19 10:12:12;;;;;;;0.90;0.90;;;;;;;;;;5075396;28;20450;-68
2024/02/19 10:14:38;;;;;;;1.20;1.10;;;;;;;;;;5075325;28;20444;-69
2024/02/19 10:17:06;;;;;;;2.50;1.13;;;;;;;;;;5075402;28;20999;-66
2024/02/19 10:19:33;;;;;;;1.20;1.10;;;;;;;;;;5075431;28;20803;-68
2024/02/19 10:22:00;;;;;;;1.60;1.33;;;;;;;;;;5075270;28;20452;-68
2024/02/19 10:24:27;;;;;;;3.30;1.50;;;;;;;;;;5075509;28;20534;-66
2024/02/19 10:26:54;;;;;;;2.00;1.90;;;;;;;;;;5075094;28;20527;-65
2024/02/19 10:29:22;;;;;;;2.23;2.03;;;;;;;;;;5075011;28;20483;-67
2024/02/19 10:31:49;;;;;;;3.50;2.23;;;;;;;;;;5075292;28;20476;-67
2024/02/19 10:34:16;;;;;;;1.80;1.70;;;;;;;;;;5075213;28;20493;-67
2024/02/19 10:36:44;;;;;;;1.83;1.70;;;;;;;;;;5075091;28;20803;-67
2024/02/19 10:39:11;;;;;;;1.93;1.80;;;;;;;;;;5074946;28;20507;-65
2024/02/19 10:41:38;;;;;;;4.53;1.80;;;;;;;;;;5074827;28;20530;-66
2024/02/19 10:44:05;;;;;;;1.57;1.47;;;;;;;;;;5075110;28;20455;-68
2024/02/19 10:46:34;;;;;;;1.83;1.70;;;;;;;;;;5074870;28;20939;-68
2024/02/19 10:49:01;;;;;;;1.50;1.40;;;;;;;;;;5074843;28;20454;-67
2024/02/19 10:51:27;;;;;;;1.87;1.77;;;;;;;;;;5074847;28;20538;-68
2024/02/19 10:54:01;;;;;;;2.17;2.07;;;;;;;;;;5074733;28;20542;-64
2024/02/19 10:56:34;;;;;;;2.03;1.53;;;;;;;;;;5075036;28;20466;-64
2024/02/19 10:59:01;;;;;;;1.30;1.20;;;;;;;;;;5074801;28;20451;-68
2024/02/19 11:01:40;;;;;;;1.67;1.27;;;;;;;;;;5074420;28;20845;-74
2024/02/19 11:04:19;;;;;;;1.30;1.20;;;;;;;;;;5074631;28;20537;-76
2024/02/19 11:06:46;;;;;;;2.00;1.50;;;;;;;;;;5074115;28;20440;-63
2024/02/19 11:09:13;;;;;;;1.83;1.17;;;;;;;;;;5074497;28;20443;-63
2024/02/19 11:11:46;;;;;;;1.60;1.50;;;;;;;;;;5074394;28;20447;-63
2024/02/19 11:14:13;;;;;;;1.10;1.10;;;;;;;;;;5074465;28;20454;-66
2024/02/19 11:16:43;;;;;;;1.20;1.10;;;;;;;;;;5074356;28;20448;-73
2024/02/19 11:19:10;;;;;;;1.73;1.10;;;;;;;;;;5074343;28;20452;-67
2024/02/19 11:21:37;;;;;;;2.10;0.97;;;;;;;;;;5074432;28;20955;-67
2024/02/19 11:24:04;;;;;;;1.30;1.20;;;;;;;;;;5074289;28;20553;-66
2024/02/19 11:26:31;;;;;;;1.27;0.80;;;;;;;;;;5074256;28;20826;-71
2024/02/19 11:28:58;;;;;;;1.27;1.17;;;;;;;;;;5073956;28;20448;-72
2024/02/19 11:31:28;;;;;;;2.60;0.90;;;;;;;;;;5073785;28;20566;-71
2024/02/19 11:33:58;;;;;;;1.07;0.97;;;;;;;;;;5073865;28;20447;-73
2024/02/19 11:36:25;;;;;;;1.10;0.90;;;;;;;;;;5074020;28;20439;-74
2024/02/19 11:38:55;;;;;;;0.90;0.90;;;;;;;;;;5073637;28;20857;-69
2024/02/19 11:41:22;;;;;;;0.97;0.70;;;;;;;;;;5073463;28;20927;-61
2024/02/19 11:43:49;;;;;;;1.20;0.80;;;;;;;;;;5073550;28;21009;-61
2024/02/19 11:46:16;;;;;;;1.00;0.80;;;;;;;;;;5073136;28;20439;-61
2024/02/19 11:48:43;;;;;;;0.90;0.70;;;;;;;;;;5073468;28;20926;-61
2024/02/19 11:51:11;;;;;;;0.90;0.80;;;;;;;;;;5073523;28;20574;-70
2024/02/19 11:53:38;;;;;;;3.37;0.90;;;;;;;;;;5073468;28;20539;-74
2024/02/19 11:56:05;;;;;;;0.70;0.60;;;;;;;;;;5073441;28;20530;-76
2024/02/19 11:58:33;;;;;;;0.93;0.70;;;;;;;;;;5073407;28;20443;-68
2024/02/19 12:01:00;;;;;;;1.67;0.70;;;;;;;;;;5073320;28;20451;-70
2024/02/19 12:03:28;;;;;;;0.70;0.67;;;;;;;;;;5073274;28;20444;-75
2024/02/19 12:05:57;;;;;;;0.70;0.70;;;;;;;;;;5073151;28;20878;-60
2024/02/19 12:08:25;;;;;;;0.70;0.70;;;;;;;;;;5073268;28;20443;-64
2024/02/19 12:10:54;;;;;;;0.80;0.70;;;;;;;;;;5073189;28;20899;-64
2024/02/19 12:13:21;;;;;;;0.87;0.77;;;;;;;;;;5072798;28;20490;-64
2024/02/19 12:15:51;;;;;;;1.00;0.80;;;;;;;;;;5073279;28;20443;-65
2024/02/19 12:18:18;;;;;;;1.17;0.80;;;;;;;;;;5072770;28;20534;-74
2024/02/19 12:20:46;;;;;;;4.40;0.80;;;;;;;;;;5072912;28;20534;-77
2024/02/19 12:23:14;;;;;;;0.80;0.80;;;;;;;;;;5072868;28;20535;-64
2024/02/19 12:25:42;;;;;;;1.00;0.77;;;;;;;;;;5072922;28;20455;-64
2024/02/19 12:28:09;;;;;;;1.30;0.97;;;;;;;;;;5072846;28;20854;-64
2024/02/19 12:30:36;;;;;;;1.75;1.10;;;;;;;;;;5072382;28;20552;-65
2024/02/19 12:33:03;;;;;;;1.40;1.03;;;;;;;;;;5073083;28;20193;-65
2024/02/19 12:35:30;;;;;;;1.23;1.13;;;;;;;;;;5072925;28;20534;-65
2024/02/19 12:37:57;;;;;;;1.40;1.00;;;;;;;;;;5072803;28;20550;-65
2024/02/19 12:40:24;;;;;;;1.07;0.97;;;;;;;;;;5072648;28;20473;-65
2024/02/19 12:42:52;;;;;;;1.40;1.30;;;;;;;;;;5073150;28;20799;-65
2024/02/19 12:45:19;;;;;;;3.87;1.40;;;;;;;;;;5073059;28;20443;-66
2024/02/19 12:47:46;;;;;;;1.13;1.03;;;;;;;;;;5073139;28;20899;-69
2024/02/19 12:50:15;;;;;;;1.20;1.10;;;;;;;;;;5072714;28;20573;-66
2024/02/19 12:52:42;;;;;;;1.37;1.27;;;;;;;;;;5072653;28;20535;-68
2024/02/19 12:55:10;;;;;;;1.73;1.63;;;;;;;;;;5072729;28;20443;-68
2024/02/19 12:57:38;;;;;;;1.20;1.10;;;;;;;;;;5072846;28;20443;-68
2024/02/19 13:00:08;;;;;;;1.27;1.00;;;;;;;;;;5072903;28;20454;-67
2024/02/19 13:02:35;;;;;;;1.73;1.00;;;;;;;;;;5072727;28;20451;-67
2024/02/19 13:05:02;;;;;;;1.13;1.10;;;;;;;;;;5072823;28;20497;-67
2024/02/19 13:07:31;;;;;;;1.10;1.00;;;;;;;;;;5072548;28;20819;-66
2024/02/19 13:09:58;;;;;;;1.20;1.10;;;;;;;;;;5072663;28;20467;-72
2024/02/19 13:12:24;;;;;;;2.43;0.93;;;;;;;;;;5072656;28;20886;-68
2024/02/19 13:14:51;;;;;;;1.50;1.40;;;;;;;;;;5072596;28;20539;-67
2024/02/19 13:17:20;;;;;;;2.00;0.93;;;;;;;;;;5072562;28;20455;-70
2024/02/19 13:19:48;;;;;;;0.80;0.80;;;;;;;;;;5072553;28;20451;-68
2024/02/19 13:22:15;;;;;;;0.90;0.90;;;;;;;;;;5072453;28;20446;-68
2024/02/19 13:24:41;;;;;;;0.90;0.90;;;;;;;;;;5072560;28;20626;-69
2024/02/19 13:27:08;;;;;;;0.93;0.80;;;;;;;;;;5072543;28;20697;-65
2024/02/19 13:29:35;;;;;;;0.80;0.80;;;;;;;;;;5074241;28;20880;-65
2024/02/19 13:32:02;;;;;;;1.37;1.10;;;;;;;;;;5076306;28;20489;-65
2024/02/19 13:34:30;;;;;;;1.20;1.10;;;;;;;;;;5076221;28;20447;-69
2024/02/19 13:36:57;;;;;;;1.30;1.10;;;;;;;;;;5076068;28;20450;-70
2024/02/19 13:39:25;;;;;;;1.20;1.10;;;;;;;;;;5076056;28;20569;-67
2024/02/19 13:41:52;;;;;;;1.13;1.03;;;;;;;;;;5076365;28;20954;-69
2024/02/19 13:44:19;;;;;;;1.40;1.30;;;;;;;;;;5076143;28;20542;-70
2024/02/19 13:46:46;;;;;;;1.30;1.20;;;;;;;;;;5075968;28;20969;-67
2024/02/19 13:49:13;;;;;;;3.13;1.50;;;;;;;;;;5075878;28;20486;-67
2024/02/19 13:51:41;;;;;;;1.83;1.30;;;;;;;;;;5075980;28;20482;-71
2024/02/19 13:54:08;;;;;;;2.07;1.33;;;;;;;;;;5075926;28;20474;-66
2024/02/19 13:56:35;;;;;;;1.70;1.10;;;;;;;;;;5075794;28;20489;-69
2024/02/19 13:59:07;;;;;;;1.30;1.20;;;;;;;;;;5075925;28;20539;-69
2024/02/19 14:01:34;;;;;;;1.10;1.00;;;;;;;;;;5075288;28;20919;-70
2024/02/19 14:04:03;;;;;;;1.30;1.20;;;;;;;;;;5075481;28;20497;-68
2024/02/19 14:06:30;;;;;;;0.90;0.90;;;;;;;;;;5075721;28;20446;-68
2024/02/19 14:08:59;;;;;;;2.40;1.10;;;;;;;;;;5075244;28;20455;-68
2024/02/19 14:11:26;;;;;;;1.20;1.10;;;;;;;;;;5075278;28;20990;-68
2024/02/19 14:13:53;;;;;;;1.20;1.10;;;;;;;;;;5075604;28;20443;-68
2024/02/19 14:16:21;;;;;;;0.90;0.90;;;;;;;;;;5075403;28;20448;-69
2024/02/19 14:18:47;;;;;;;1.53;1.00;;;;;;;;;;5075208;28;20529;-68
2024/02/19 14:21:14;;;;;;;1.20;1.10;;;;;;;;;;5075528;28;20470;-69
2024/02/19 14:23:41;;;;;;;1.70;1.10;;;;;;;;;;5075456;28;20927;-68
2024/02/19 14:26:10;;;;;;;1.50;1.40;;;;;;;;;;5075383;28;20878;-68
2024/02/19 14:28:38;;;;;;;1.10;0.80;;;;;;;;;;5075121;28;20439;-69
2024/02/19 14:31:05;;;;;;;0.93;0.93;;;;;;;;;;5076026;28;20479;-68
2024/02/19 14:33:32;;;;;;;1.20;1.10;;;;;;;;;;5075346;28;20450;-68
2024/02/19 14:35:59;;;;;;;1.20;0.80;;;;;;;;;;5075136;28;20858;-68
2024/02/19 14:38:26;;;;;;;0.90;0.90;;;;;;;;;;5075038;28;20543;-69
2024/02/19 14:40:53;;;;;;;1.27;1.17;;;;;;;;;;5074720;28;20824;-68
2024/02/19 14:43:21;;;;;;;1.20;1.10;;;;;;;;;;5074709;28;20546;-68